sensor_id;sensor_type;location;lat;lon;timestamp;temperature;humidity
20829;DHT22;10575;50.124;8.582;2024-01-30T00:00:01;3.40;99.90
20829;DHT22;10575;50.124;8.582;2024-01-30T00:02:26;3.50;99.90
20829;DHT22;10575;50.124;8.582;2024-01-30T00:04:52;3.50;99.90
20829;DHT22;10575;50.124;8.582;2024-01-30T00:07:17;3.50;99.90
20829;DHT22;10575;50.124;8.582;2024-01-30T00:09:43;3.50;99.90
20829;DHT22;10575;50.124;8.582;2024-01-30T00:12:08;3.40;99.90
20829;DHT22;10575;50.124;8.582;2024-01-30T00:14:34;3.40;99.90
20829;DHT22;10575;50.124;8.582;2024-01-30T00:16:59;3.40;99.90
20829;DHT22;10575;50.124;8.582;2024-01-30T00:19:25;3.40;99.90
20829;DHT22;10575;50.124;8.582;2024-01-30T00:21:50;3.40;99.90
20829;DHT22;10575;50.124;8.582;2024-01-30T00:24:17;3.50;99.90
20829;DHT22;10575;50.124;8.582;2024-01-30T00:26:42;3.40;99.90
20829;DHT22;10575;50.124;8.582;2024-01-30T00:29:08;3.40;99.90
20829;DHT22;10575;50.124;8.582;2024-01-30T00:31:34;3.40;99.90
20829;DHT22;10575;50.124;8.582;2024-01-30T00:34:00;3.40;99.90
20829;DHT22;10575;50.124;8.582;2024-01-30T00:36:25;3.40;99.90
20829;DHT22;10575;50.124;8.582;2024-01-30T00:38:51;3.40;99.90
20829;DHT22;10575;50.124;8.582;2024-01-30T00:41:20;3.40;99.90
20829;DHT22;10575;50.124;8.582;2024-01-30T00:43:45;3.40;99.90
20829;DHT22;10575;50.124;8.582;2024-01-30T00:46:11;3.40;99.90
20829;DHT22;10575;50.124;8.582;2024-01-30T00:48:36;3.40;99.90
20829;DHT22;10575;50.124;8.582;2024-01-30T00:51:02;3.40;99.90
20829;DHT22;10575;50.124;8.582;2024-01-30T00:53:27;3.30;99.90
20829;DHT22;10575;50.124;8.582;2024-01-30T00:55:53;3.30;99.90
20829;DHT22;10575;50.124;8.582;2024-01-30T00:58:18;3.30;99.90
20829;DHT22;10575;50.124;8.582;2024-01-30T01:00:44;3.30;99.90
20829;DHT22;10575;50.124;8.582;2024-01-30T01:03:10;3.20;99.90
20829;DHT22;10575;50.124;8.582;2024-01-30T01:05:35;3.20;99.90
20829;DHT22;10575;50.124;8.582;2024-01-30T01:08:01;3.10;99.90
20829;DHT22;10575;50.124;8.582;2024-01-30T01:10:26;3.10;99.90
20829;DHT22;10575;50.124;8.582;2024-01-30T01:12:52;3.10;99.90
20829;DHT22;10575;50.124;8.582;2024-01-30T01:15:18;3.10;99.90
20829;DHT22;10575;50.124;8.582;2024-01-30T01:17:43;3.10;99.90
20829;DHT22;10575;50.124;8.582;2024-01-30T01:20:09;3.10;99.90
20829;DHT22;10575;50.124;8.582;2024-01-30T01:22:35;3.10;99.90
20829;DHT22;10575;50.124;8.582;2024-01-30T01:25:01;3.00;99.90
20829;DHT22;10575;50.124;8.582;2024-01-30T01:27:27;3.00;99.90
20829;DHT22;10575;50.124;8.582;2024-01-30T01:29:53;3.00;99.90
20829;DHT22;10575;50.124;8.582;2024-01-30T01:32:19;3.00;99.90
20829;DHT22;10575;50.124;8.582;2024-01-30T01:34:45;3.00;99.90
20829;DHT22;10575;50.124;8.582;2024-01-30T01:37:10;3.00;99.90
20829;DHT22;10575;50.124;8.582;2024-01-30T01:39:36;3.00;99.90
20829;DHT22;10575;50.124;8.582;2024-01-30T01:42:02;3.00;99.90
20829;DHT22;10575;50.124;8.582;2024-01-30T01:44:27;3.00;99.90
20829;DHT22;10575;50.124;8.582;2024-01-30T01:46:54;3.00;99.90
20829;DHT22;10575;50.124;8.582;2024-01-30T01:49:24;3.00;99.90
20829;DHT22;10575;50.124;8.582;2024-01-30T01:51:51;2.90;99.90
20829;DHT22;10575;50.124;8.582;2024-01-30T01:54:19;2.80;99.90
20829;DHT22;10575;50.124;8.582;2024-01-30T01:56:45;2.70;99.90
20829;DHT22;10575;50.124;8.582;2024-01-30T01:59:10;2.60;99.90
20829;DHT22;10575;50.124;8.582;2024-01-30T02:01:36;2.70;99.90
20829;DHT22;10575;50.124;8.582;2024-01-30T02:04:02;2.70;99.90
20829;DHT22;10575;50.124;8.582;2024-01-30T02:06:28;2.70;99.90
20829;DHT22;10575;50.124;8.582;2024-01-30T02:08:54;2.70;99.90
20829;DHT22;10575;50.124;8.582;2024-01-30T02:11:23;2.70;99.90
20829;DHT22;10575;50.124;8.582;2024-01-30T02:13:49;2.70;99.90
20829;DHT22;10575;50.124;8.582;2024-01-30T02:16:15;2.70;99.90
20829;DHT22;10575;50.124;8.582;2024-01-30T02:18:42;2.70;99.90
20829;DHT22;10575;50.124;8.582;2024-01-30T02:21:10;2.60;99.90
20829;DHT22;10575;50.124;8.582;2024-01-30T02:23:36;2.70;99.90
20829;DHT22;10575;50.124;8.582;2024-01-30T02:26:03;2.70;99.90
20829;DHT22;10575;50.124;8.582;2024-01-30T02:28:28;2.70;99.90
20829;DHT22;10575;50.124;8.582;2024-01-30T02:30:54;2.70;99.90
20829;DHT22;10575;50.124;8.582;2024-01-30T02:33:19;2.70;99.90
20829;DHT22;10575;50.124;8.582;2024-01-30T02:35:47;2.70;99.90
20829;DHT22;10575;50.124;8.582;2024-01-30T02:38:13;2.60;99.90
20829;DHT22;10575;50.124;8.582;2024-01-30T02:40:38;2.60;99.90
20829;DHT22;10575;50.124;8.582;2024-01-30T02:43:04;2.60;99.90
20829;DHT22;10575;50.124;8.582;2024-01-30T02:45:29;2.60;99.90
20829;DHT22;10575;50.124;8.582;2024-01-30T02:47:55;2.50;99.90
20829;DHT22;10575;50.124;8.582;2024-01-30T02:50:20;2.50;99.90
20829;DHT22;10575;50.124;8.582;2024-01-30T02:52:46;2.40;99.90
20829;DHT22;10575;50.124;8.582;2024-01-30T02:55:12;2.40;99.90
20829;DHT22;10575;50.124;8.582;2024-01-30T02:57:38;2.40;99.90
20829;DHT22;10575;50.124;8.582;2024-01-30T03:00:04;2.50;99.90
20829;DHT22;10575;50.124;8.582;2024-01-30T03:02:31;2.50;99.90
20829;DHT22;10575;50.124;8.582;2024-01-30T03:04:57;2.50;99.90
20829;DHT22;10575;50.124;8.582;2024-01-30T03:07:23;2.50;99.90
20829;DHT22;10575;50.124;8.582;2024-01-30T03:09:51;2.40;99.90
20829;DHT22;10575;50.124;8.582;2024-01-30T03:12:16;2.40;99.90
20829;DHT22;10575;50.124;8.582;2024-01-30T03:14:42;2.40;99.90
20829;DHT22;10575;50.124;8.582;2024-01-30T03:17:07;2.40;99.90
20829;DHT22;10575;50.124;8.582;2024-01-30T03:19:33;2.40;99.90
20829;DHT22;10575;50.124;8.582;2024-01-30T03:21:59;2.20;99.90
20829;DHT22;10575;50.124;8.582;2024-01-30T03:24:24;2.20;99.90
20829;DHT22;10575;50.124;8.582;2024-01-30T03:26:50;2.20;99.90
20829;DHT22;10575;50.124;8.582;2024-01-30T03:29:15;2.20;99.90
20829;DHT22;10575;50.124;8.582;2024-01-30T03:31:41;2.20;99.90
20829;DHT22;10575;50.124;8.582;2024-01-30T03:34:07;2.20;99.90
20829;DHT22;10575;50.124;8.582;2024-01-30T03:36:32;2.30;99.90
20829;DHT22;10575;50.124;8.582;2024-01-30T03:39:00;2.30;99.90
20829;DHT22;10575;50.124;8.582;2024-01-30T03:41:25;2.20;99.90
20829;DHT22;10575;50.124;8.582;2024-01-30T03:43:51;2.10;99.90
20829;DHT22;10575;50.124;8.582;2024-01-30T03:46:17;2.20;99.90
20829;DHT22;10575;50.124;8.582;2024-01-30T03:48:42;2.30;99.90
20829;DHT22;10575;50.124;8.582;2024-01-30T03:51:08;2.30;99.90
20829;DHT22;10575;50.124;8.582;2024-01-30T03:53:42;2.30;99.90
20829;DHT22;10575;50.124;8.582;2024-01-30T03:56:09;2.30;99.90
20829;DHT22;10575;50.124;8.582;2024-01-30T03:58:34;2.40;99.90
20829;DHT22;10575;50.124;8.582;2024-01-30T04:01:00;2.50;99.90
20829;DHT22;10575;50.124;8.582;2024-01-30T04:03:25;2.50;99.90
20829;DHT22;10575;50.124;8.582;2024-01-30T04:05:54;2.50;99.90
20829;DHT22;10575;50.124;8.582;2024-01-30T04:08:19;2.50;99.90
20829;DHT22;10575;50.124;8.582;2024-01-30T04:10:45;2.50;99.90
20829;DHT22;10575;50.124;8.582;2024-01-30T04:13:11;2.50;99.90
20829;DHT22;10575;50.124;8.582;2024-01-30T04:15:37;2.50;99.90
20829;DHT22;10575;50.124;8.582;2024-01-30T04:18:02;2.50;99.90
20829;DHT22;10575;50.124;8.582;2024-01-30T04:20:29;2.40;99.90
20829;DHT22;10575;50.124;8.582;2024-01-30T04:22:54;2.40;99.90
20829;DHT22;10575;50.124;8.582;2024-01-30T04:25:20;2.40;99.90
20829;DHT22;10575;50.124;8.582;2024-01-30T04:27:45;2.30;99.90
20829;DHT22;10575;50.124;8.582;2024-01-30T04:30:11;2.30;99.90
20829;DHT22;10575;50.124;8.582;2024-01-30T04:32:37;2.30;99.90
20829;DHT22;10575;50.124;8.582;2024-01-30T04:35:03;2.30;99.90
20829;DHT22;10575;50.124;8.582;2024-01-30T04:37:28;2.30;99.90
20829;DHT22;10575;50.124;8.582;2024-01-30T04:39:54;2.30;99.90
20829;DHT22;10575;50.124;8.582;2024-01-30T04:42:19;2.30;99.90
20829;DHT22;10575;50.124;8.582;2024-01-30T04:44:45;2.30;99.90
20829;DHT22;10575;50.124;8.582;2024-01-30T04:47:11;2.30;99.90
20829;DHT22;10575;50.124;8.582;2024-01-30T04:49:38;2.30;99.90
20829;DHT22;10575;50.124;8.582;2024-01-30T04:52:05;2.30;99.90
20829;DHT22;10575;50.124;8.582;2024-01-30T04:54:31;2.30;99.90
20829;DHT22;10575;50.124;8.582;2024-01-30T04:56:56;2.30;99.90
20829;DHT22;10575;50.124;8.582;2024-01-30T04:59:22;2.30;99.90
20829;DHT22;10575;50.124;8.582;2024-01-30T05:01:47;2.30;99.90
20829;DHT22;10575;50.124;8.582;2024-01-30T05:04:13;2.30;99.90
20829;DHT22;10575;50.124;8.582;2024-01-30T05:06:38;2.30;99.90
20829;DHT22;10575;50.124;8.582;2024-01-30T05:09:04;2.30;99.90
20829;DHT22;10575;50.124;8.582;2024-01-30T05:11:37;2.30;99.90
20829;DHT22;10575;50.124;8.582;2024-01-30T05:14:03;2.30;99.90
20829;DHT22;10575;50.124;8.582;2024-01-30T05:16:28;2.30;99.90
20829;DHT22;10575;50.124;8.582;2024-01-30T05:18:54;2.20;99.90
20829;DHT22;10575;50.124;8.582;2024-01-30T05:21:19;2.20;99.90
20829;DHT22;10575;50.124;8.582;2024-01-30T05:23:45;2.20;99.90
20829;DHT22;10575;50.124;8.582;2024-01-30T05:26:11;2.20;99.90
20829;DHT22;10575;50.124;8.582;2024-01-30T05:28:36;2.20;99.90
20829;DHT22;10575;50.124;8.582;2024-01-30T05:31:02;2.10;99.90
20829;DHT22;10575;50.124;8.582;2024-01-30T05:33:27;2.10;99.90
20829;DHT22;10575;50.124;8.582;2024-01-30T05:35:53;2.10;99.90
20829;DHT22;10575;50.124;8.582;2024-01-30T05:38:20;2.10;99.90
20829;DHT22;10575;50.124;8.582;2024-01-30T05:40:45;2.10;99.90
20829;DHT22;10575;50.124;8.582;2024-01-30T05:43:11;2.00;99.90
20829;DHT22;10575;50.124;8.582;2024-01-30T05:45:37;2.00;99.90
20829;DHT22;10575;50.124;8.582;2024-01-30T05:48:02;2.00;99.90
20829;DHT22;10575;50.124;8.582;2024-01-30T05:50:28;2.00;99.90
20829;DHT22;10575;50.124;8.582;2024-01-30T05:52:54;2.10;99.90
20829;DHT22;10575;50.124;8.582;2024-01-30T05:55:19;2.10;99.90
20829;DHT22;10575;50.124;8.582;2024-01-30T05:57:45;2.10;99.90
20829;DHT22;10575;50.124;8.582;2024-01-30T06:00:10;2.10;99.90
20829;DHT22;10575;50.124;8.582;2024-01-30T06:02:36;2.10;99.90
20829;DHT22;10575;50.124;8.582;2024-01-30T06:05:02;2.20;99.90
20829;DHT22;10575;50.124;8.582;2024-01-30T06:07:27;2.20;99.90
20829;DHT22;10575;50.124;8.582;2024-01-30T06:09:53;2.20;99.90
20829;DHT22;10575;50.124;8.582;2024-01-30T06:12:18;2.20;99.90
20829;DHT22;10575;50.124;8.582;2024-01-30T06:14:44;2.20;99.90
20829;DHT22;10575;50.124;8.582;2024-01-30T06:17:09;2.10;99.90
20829;DHT22;10575;50.124;8.582;2024-01-30T06:19:37;2.10;99.90
20829;DHT22;10575;50.124;8.582;2024-01-30T06:22:04;2.10;99.90
20829;DHT22;10575;50.124;8.582;2024-01-30T06:24:29;2.10;99.90
20829;DHT22;10575;50.124;8.582;2024-01-30T06:26:55;2.10;99.90
20829;DHT22;10575;50.124;8.582;2024-01-30T06:29:20;2.10;99.90
20829;DHT22;10575;50.124;8.582;2024-01-30T06:31:46;2.10;99.90
20829;DHT22;10575;50.124;8.582;2024-01-30T06:34:11;2.10;99.90
20829;DHT22;10575;50.124;8.582;2024-01-30T06:36:37;2.10;99.90
20829;DHT22;10575;50.124;8.582;2024-01-30T06:39:04;2.10;99.90
20829;DHT22;10575;50.124;8.582;2024-01-30T06:41:30;2.10;99.90
20829;DHT22;10575;50.124;8.582;2024-01-30T06:43:56;2.10;99.90
20829;DHT22;10575;50.124;8.582;2024-01-30T06:46:21;2.10;99.90
20829;DHT22;10575;50.124;8.582;2024-01-30T06:48:47;2.10;99.90
20829;DHT22;10575;50.124;8.582;2024-01-30T06:51:12;2.10;99.90
20829;DHT22;10575;50.124;8.582;2024-01-30T06:53:38;2.20;99.90
20829;DHT22;10575;50.124;8.582;2024-01-30T06:56:04;2.20;99.90
20829;DHT22;10575;50.124;8.582;2024-01-30T06:58:30;2.20;99.90
20829;DHT22;10575;50.124;8.582;2024-01-30T07:00:56;2.20;99.90
20829;DHT22;10575;50.124;8.582;2024-01-30T07:03:21;2.20;99.90
20829;DHT22;10575;50.124;8.582;2024-01-30T07:05:47;2.20;99.90
20829;DHT22;10575;50.124;8.582;2024-01-30T07:08:12;2.20;99.90
20829;DHT22;10575;50.124;8.582;2024-01-30T07:10:38;2.20;99.90
20829;DHT22;10575;50.124;8.582;2024-01-30T07:13:04;2.30;99.90
20829;DHT22;10575;50.124;8.582;2024-01-30T07:15:31;2.30;99.90
20829;DHT22;10575;50.124;8.582;2024-01-30T07:17:56;2.20;99.90
20829;DHT22;10575;50.124;8.582;2024-01-30T07:20:22;2.30;99.90
20829;DHT22;10575;50.124;8.582;2024-01-30T07:22:47;2.30;99.90
20829;DHT22;10575;50.124;8.582;2024-01-30T07:25:13;2.30;99.90
20829;DHT22;10575;50.124;8.582;2024-01-30T07:27:39;2.30;99.90
20829;DHT22;10575;50.124;8.582;2024-01-30T07:30:05;2.30;99.90
20829;DHT22;10575;50.124;8.582;2024-01-30T07:32:31;2.40;99.90
20829;DHT22;10575;50.124;8.582;2024-01-30T07:34:57;2.40;99.90
20829;DHT22;10575;50.124;8.582;2024-01-30T07:37:22;2.50;99.90
20829;DHT22;10575;50.124;8.582;2024-01-30T07:39:48;2.50;99.90
20829;DHT22;10575;50.124;8.582;2024-01-30T07:42:13;2.60;99.90
20829;DHT22;10575;50.124;8.582;2024-01-30T07:44:39;2.60;99.90
20829;DHT22;10575;50.124;8.582;2024-01-30T07:47:05;2.70;99.90
20829;DHT22;10575;50.124;8.582;2024-01-30T07:49:30;2.80;99.90
20829;DHT22;10575;50.124;8.582;2024-01-30T07:51:56;2.90;99.90
20829;DHT22;10575;50.124;8.582;2024-01-30T07:54:21;2.90;99.90
20829;DHT22;10575;50.124;8.582;2024-01-30T07:56:47;3.00;99.90
20829;DHT22;10575;50.124;8.582;2024-01-30T07:59:12;3.20;99.90
20829;DHT22;10575;50.124;8.582;2024-01-30T08:01:38;3.20;99.90
20829;DHT22;10575;50.124;8.582;2024-01-30T08:04:04;3.30;99.90
20829;DHT22;10575;50.124;8.582;2024-01-30T08:06:29;3.30;99.90
20829;DHT22;10575;50.124;8.582;2024-01-30T08:08:55;3.40;99.90
20829;DHT22;10575;50.124;8.582;2024-01-30T08:11:21;3.50;99.90
20829;DHT22;10575;50.124;8.582;2024-01-30T08:13:51;3.50;99.90
20829;DHT22;10575;50.124;8.582;2024-01-30T08:16:17;3.60;99.90
20829;DHT22;10575;50.124;8.582;2024-01-30T08:18:42;3.70;99.90
20829;DHT22;10575;50.124;8.582;2024-01-30T08:21:10;3.80;99.90
20829;DHT22;10575;50.124;8.582;2024-01-30T08:23:37;3.90;99.90
20829;DHT22;10575;50.124;8.582;2024-01-30T08:26:03;4.10;99.90
20829;DHT22;10575;50.124;8.582;2024-01-30T08:28:29;4.10;99.90
20829;DHT22;10575;50.124;8.582;2024-01-30T08:30:55;4.20;99.90
20829;DHT22;10575;50.124;8.582;2024-01-30T08:33:20;4.30;99.90
20829;DHT22;10575;50.124;8.582;2024-01-30T08:35:46;4.40;99.90
20829;DHT22;10575;50.124;8.582;2024-01-30T08:38:11;4.50;99.90
20829;DHT22;10575;50.124;8.582;2024-01-30T08:40:37;4.50;99.90
20829;DHT22;10575;50.124;8.582;2024-01-30T08:43:03;4.60;99.90
20829;DHT22;10575;50.124;8.582;2024-01-30T08:45:29;4.60;99.90
20829;DHT22;10575;50.124;8.582;2024-01-30T08:47:56;4.70;99.90
20829;DHT22;10575;50.124;8.582;2024-01-30T08:50:21;4.80;99.90
20829;DHT22;10575;50.124;8.582;2024-01-30T08:52:47;4.90;99.90
20829;DHT22;10575;50.124;8.582;2024-01-30T08:55:12;5.00;99.90
20829;DHT22;10575;50.124;8.582;2024-01-30T08:57:38;5.10;99.90
20829;DHT22;10575;50.124;8.582;2024-01-30T09:00:04;5.10;99.90
20829;DHT22;10575;50.124;8.582;2024-01-30T09:02:32;5.10;99.90
20829;DHT22;10575;50.124;8.582;2024-01-30T09:04:57;5.20;99.90
20829;DHT22;10575;50.124;8.582;2024-01-30T09:07:23;5.20;99.90
20829;DHT22;10575;50.124;8.582;2024-01-30T09:09:49;5.20;99.90
20829;DHT22;10575;50.124;8.582;2024-01-30T09:12:14;5.20;99.90
20829;DHT22;10575;50.124;8.582;2024-01-30T09:14:40;5.20;99.90
20829;DHT22;10575;50.124;8.582;2024-01-30T09:17:09;5.10;99.90
20829;DHT22;10575;50.124;8.582;2024-01-30T09:19:35;5.10;99.90
20829;DHT22;10575;50.124;8.582;2024-01-30T09:22:01;5.10;99.90
20829;DHT22;10575;50.124;8.582;2024-01-30T09:24:27;5.20;99.90
20829;DHT22;10575;50.124;8.582;2024-01-30T09:26:53;5.20;99.90
20829;DHT22;10575;50.124;8.582;2024-01-30T09:29:18;5.30;99.90
20829;DHT22;10575;50.124;8.582;2024-01-30T09:31:45;5.40;99.90
20829;DHT22;10575;50.124;8.582;2024-01-30T09:34:10;5.40;99.90
20829;DHT22;10575;50.124;8.582;2024-01-30T09:36:36;5.50;99.90
20829;DHT22;10575;50.124;8.582;2024-01-30T09:39:01;5.50;99.90
20829;DHT22;10575;50.124;8.582;2024-01-30T09:41:27;5.60;99.90
20829;DHT22;10575;50.124;8.582;2024-01-30T09:43:54;5.50;99.90
20829;DHT22;10575;50.124;8.582;2024-01-30T09:46:21;5.60;99.90
20829;DHT22;10575;50.124;8.582;2024-01-30T09:48:48;5.60;99.90
20829;DHT22;10575;50.124;8.582;2024-01-30T09:51:15;5.70;99.90
20829;DHT22;10575;50.124;8.582;2024-01-30T09:53:42;5.80;99.90
20829;DHT22;10575;50.124;8.582;2024-01-30T09:56:08;5.90;99.90
20829;DHT22;10575;50.124;8.582;2024-01-30T09:58:34;6.10;99.90
20829;DHT22;10575;50.124;8.582;2024-01-30T10:00:59;6.20;99.90
20829;DHT22;10575;50.124;8.582;2024-01-30T10:03:25;6.20;99.90
20829;DHT22;10575;50.124;8.582;2024-01-30T10:05:51;6.30;99.90
20829;DHT22;10575;50.124;8.582;2024-01-30T10:08:20;6.40;99.90
20829;DHT22;10575;50.124;8.582;2024-01-30T10:10:49;6.50;99.90
20829;DHT22;10575;50.124;8.582;2024-01-30T10:13:15;6.50;99.90
20829;DHT22;10575;50.124;8.582;2024-01-30T10:15:41;6.60;99.90
20829;DHT22;10575;50.124;8.582;2024-01-30T10:18:08;6.60;99.90
20829;DHT22;10575;50.124;8.582;2024-01-30T10:20:36;6.60;99.90
20829;DHT22;10575;50.124;8.582;2024-01-30T10:23:02;6.60;99.90
20829;DHT22;10575;50.124;8.582;2024-01-30T10:25:28;6.60;99.90
20829;DHT22;10575;50.124;8.582;2024-01-30T10:27:54;6.60;99.90
20829;DHT22;10575;50.124;8.582;2024-01-30T10:30:23;6.70;99.90
20829;DHT22;10575;50.124;8.582;2024-01-30T10:32:49;6.70;99.90
20829;DHT22;10575;50.124;8.582;2024-01-30T10:35:15;6.70;99.90
20829;DHT22;10575;50.124;8.582;2024-01-30T10:37:43;6.70;99.90
20829;DHT22;10575;50.124;8.582;2024-01-30T10:40:12;6.70;99.90
20829;DHT22;10575;50.124;8.582;2024-01-30T10:42:44;6.70;99.90
20829;DHT22;10575;50.124;8.582;2024-01-30T10:45:12;6.70;99.90
20829;DHT22;10575;50.124;8.582;2024-01-30T10:47:40;6.60;99.90
20829;DHT22;10575;50.124;8.582;2024-01-30T10:50:07;6.80;99.90
20829;DHT22;10575;50.124;8.582;2024-01-30T10:52:34;6.90;99.90
20829;DHT22;10575;50.124;8.582;2024-01-30T10:55:00;6.90;99.90
20829;DHT22;10575;50.124;8.582;2024-01-30T10:57:27;6.90;99.90
20829;DHT22;10575;50.124;8.582;2024-01-30T10:59:55;7.00;99.90
20829;DHT22;10575;50.124;8.582;2024-01-30T11:02:22;7.00;99.90
20829;DHT22;10575;50.124;8.582;2024-01-30T11:04:49;6.90;99.90
20829;DHT22;10575;50.124;8.582;2024-01-30T11:07:18;6.90;99.90
20829;DHT22;10575;50.124;8.582;2024-01-30T11:09:51;6.70;99.90
20829;DHT22;10575;50.124;8.582;2024-01-30T11:12:20;6.70;99.90
20829;DHT22;10575;50.124;8.582;2024-01-30T11:14:46;6.90;99.90
20829;DHT22;10575;50.124;8.582;2024-01-30T11:17:12;7.10;99.90
20829;DHT22;10575;50.124;8.582;2024-01-30T11:19:38;7.30;99.90
20829;DHT22;10575;50.124;8.582;2024-01-30T11:22:03;7.40;99.90
20829;DHT22;10575;50.124;8.582;2024-01-30T11:24:40;7.30;99.90
20829;DHT22;10575;50.124;8.582;2024-01-30T11:27:09;7.30;99.90
20829;DHT22;10575;50.124;8.582;2024-01-30T11:29:36;7.40;99.90
20829;DHT22;10575;50.124;8.582;2024-01-30T11:32:02;7.50;99.90
20829;DHT22;10575;50.124;8.582;2024-01-30T11:34:28;7.50;99.90
20829;DHT22;10575;50.124;8.582;2024-01-30T11:36:56;7.60;99.90
20829;DHT22;10575;50.124;8.582;2024-01-30T11:39:26;7.70;99.90
20829;DHT22;10575;50.124;8.582;2024-01-30T11:41:52;7.60;99.90
20829;DHT22;10575;50.124;8.582;2024-01-30T11:44:22;7.60;99.90
20829;DHT22;10575;50.124;8.582;2024-01-30T11:46:48;7.50;99.90
20829;DHT22;10575;50.124;8.582;2024-01-30T11:49:14;7.50;99.90
20829;DHT22;10575;50.124;8.582;2024-01-30T11:51:41;7.80;99.90
20829;DHT22;10575;50.124;8.582;2024-01-30T11:54:07;7.90;99.90
20829;DHT22;10575;50.124;8.582;2024-01-30T11:56:33;8.10;99.90
20829;DHT22;10575;50.124;8.582;2024-01-30T11:58:58;8.10;99.90
20829;DHT22;10575;50.124;8.582;2024-01-30T12:01:26;8.00;99.90
20829;DHT22;10575;50.124;8.582;2024-01-30T12:03:52;8.20;99.90
20829;DHT22;10575;50.124;8.582;2024-01-30T12:06:17;8.20;99.90
20829;DHT22;10575;50.124;8.582;2024-01-30T12:08:43;8.20;99.90
20829;DHT22;10575;50.124;8.582;2024-01-30T12:11:19;8.20;99.90
20829;DHT22;10575;50.124;8.582;2024-01-30T12:13:45;8.30;99.90
20829;DHT22;10575;50.124;8.582;2024-01-30T12:16:10;8.40;99.90
20829;DHT22;10575;50.124;8.582;2024-01-30T12:18:36;8.20;99.90
20829;DHT22;10575;50.124;8.582;2024-01-30T12:21:01;8.20;99.90
20829;DHT22;10575;50.124;8.582;2024-01-30T12:23:27;8.20;99.90
20829;DHT22;10575;50.124;8.582;2024-01-30T12:25:53;8.10;99.90
20829;DHT22;10575;50.124;8.582;2024-01-30T12:28:20;8.10;99.90
20829;DHT22;10575;50.124;8.582;2024-01-30T12:30:46;8.30;99.90
20829;DHT22;10575;50.124;8.582;2024-01-30T12:33:16;8.50;99.90
20829;DHT22;10575;50.124;8.582;2024-01-30T12:35:46;8.60;99.90
20829;DHT22;10575;50.124;8.582;2024-01-30T12:38:12;8.70;99.90
20829;DHT22;10575;50.124;8.582;2024-01-30T12:40:37;8.70;99.90
20829;DHT22;10575;50.124;8.582;2024-01-30T12:43:03;8.70;99.90
20829;DHT22;10575;50.124;8.582;2024-01-30T12:45:30;8.80;99.90
20829;DHT22;10575;50.124;8.582;2024-01-30T12:47:57;8.90;99.90
20829;DHT22;10575;50.124;8.582;2024-01-30T12:50:23;9.00;99.90
20829;DHT22;10575;50.124;8.582;2024-01-30T12:52:49;9.10;99.90
20829;DHT22;10575;50.124;8.582;2024-01-30T12:55:15;9.00;99.90
20829;DHT22;10575;50.124;8.582;2024-01-30T12:57:40;9.10;99.90
20829;DHT22;10575;50.124;8.582;2024-01-30T13:00:07;9.20;99.90
20829;DHT22;10575;50.124;8.582;2024-01-30T13:02:36;9.30;99.90
20829;DHT22;10575;50.124;8.582;2024-01-30T13:05:03;9.30;99.90
20829;DHT22;10575;50.124;8.582;2024-01-30T13:07:29;9.20;99.90
20829;DHT22;10575;50.124;8.582;2024-01-30T13:09:56;9.40;99.90
20829;DHT22;10575;50.124;8.582;2024-01-30T13:12:21;9.50;99.90
20829;DHT22;10575;50.124;8.582;2024-01-30T13:14:47;9.50;99.90
20829;DHT22;10575;50.124;8.582;2024-01-30T13:17:12;9.60;99.90
20829;DHT22;10575;50.124;8.582;2024-01-30T13:19:38;9.50;99.90
20829;DHT22;10575;50.124;8.582;2024-01-30T13:22:04;9.50;99.90
20829;DHT22;10575;50.124;8.582;2024-01-30T13:24:29;9.50;99.90
20829;DHT22;10575;50.124;8.582;2024-01-30T13:26:55;9.50;99.90
20829;DHT22;10575;50.124;8.582;2024-01-30T13:29:20;9.40;99.90
20829;DHT22;10575;50.124;8.582;2024-01-30T13:31:46;9.30;99.90
20829;DHT22;10575;50.124;8.582;2024-01-30T13:34:12;9.30;99.90
20829;DHT22;10575;50.124;8.582;2024-01-30T13:36:39;9.30;99.90
20829;DHT22;10575;50.124;8.582;2024-01-30T13:39:05;9.20;99.90
20829;DHT22;10575;50.124;8.582;2024-01-30T13:41:34;9.20;99.90
20829;DHT22;10575;50.124;8.582;2024-01-30T13:43:59;9.10;99.90
20829;DHT22;10575;50.124;8.582;2024-01-30T13:46:25;9.20;99.90
20829;DHT22;10575;50.124;8.582;2024-01-30T13:48:51;9.10;99.90
20829;DHT22;10575;50.124;8.582;2024-01-30T13:51:16;9.10;99.90
20829;DHT22;10575;50.124;8.582;2024-01-30T13:53:42;8.90;99.90
20829;DHT22;10575;50.124;8.582;2024-01-30T13:56:08;9.00;99.90
20829;DHT22;10575;50.124;8.582;2024-01-30T13:58:33;9.00;99.90
20829;DHT22;10575;50.124;8.582;2024-01-30T14:01:01;9.00;99.90
20829;DHT22;10575;50.124;8.582;2024-01-30T14:03:27;9.00;99.90
20829;DHT22;10575;50.124;8.582;2024-01-30T14:05:52;9.00;99.90
20829;DHT22;10575;50.124;8.582;2024-01-30T14:08:18;9.00;99.90
20829;DHT22;10575;50.124;8.582;2024-01-30T14:10:43;9.00;99.90
20829;DHT22;10575;50.124;8.582;2024-01-30T14:13:09;9.00;99.90
20829;DHT22;10575;50.124;8.582;2024-01-30T14:15:35;8.80;99.90
20829;DHT22;10575;50.124;8.582;2024-01-30T14:18:01;8.70;99.90
20829;DHT22;10575;50.124;8.582;2024-01-30T14:20:26;8.70;99.90
20829;DHT22;10575;50.124;8.582;2024-01-30T14:22:52;8.70;99.90
20829;DHT22;10575;50.124;8.582;2024-01-30T14:25:20;8.50;99.90
20829;DHT22;10575;50.124;8.582;2024-01-30T14:27:46;8.50;99.90
20829;DHT22;10575;50.124;8.582;2024-01-30T14:30:12;8.50;99.90
20829;DHT22;10575;50.124;8.582;2024-01-30T14:32:37;8.30;99.90
20829;DHT22;10575;50.124;8.582;2024-01-30T14:35:05;8.20;99.90
20829;DHT22;10575;50.124;8.582;2024-01-30T14:37:30;8.20;99.90
20829;DHT22;10575;50.124;8.582;2024-01-30T14:39:56;8.10;99.90
20829;DHT22;10575;50.124;8.582;2024-01-30T14:42:21;8.10;99.90
20829;DHT22;10575;50.124;8.582;2024-01-30T14:44:47;8.10;99.90
20829;DHT22;10575;50.124;8.582;2024-01-30T14:47:14;8.10;99.90
20829;DHT22;10575;50.124;8.582;2024-01-30T14:49:39;8.10;99.90
20829;DHT22;10575;50.124;8.582;2024-01-30T14:52:05;8.10;99.90
20829;DHT22;10575;50.124;8.582;2024-01-30T14:54:31;8.10;99.90
20829;DHT22;10575;50.124;8.582;2024-01-30T14:56:56;8.20;99.90
20829;DHT22;10575;50.124;8.582;2024-01-30T14:59:23;8.10;99.90
20829;DHT22;10575;50.124;8.582;2024-01-30T15:01:48;8.10;99.90
20829;DHT22;10575;50.124;8.582;2024-01-30T15:04:14;8.10;99.90
20829;DHT22;10575;50.124;8.582;2024-01-30T15:06:40;8.20;99.90
20829;DHT22;10575;50.124;8.582;2024-01-30T15:09:13;8.30;99.90
20829;DHT22;10575;50.124;8.582;2024-01-30T15:11:41;8.30;99.90
20829;DHT22;10575;50.124;8.582;2024-01-30T15:14:06;8.20;99.90
20829;DHT22;10575;50.124;8.582;2024-01-30T15:16:32;8.10;99.90
20829;DHT22;10575;50.124;8.582;2024-01-30T15:18:57;8.20;99.90
20829;DHT22;10575;50.124;8.582;2024-01-30T15:21:23;8.10;99.90
20829;DHT22;10575;50.124;8.582;2024-01-30T15:23:49;8.20;99.90
20829;DHT22;10575;50.124;8.582;2024-01-30T15:26:14;8.20;99.90
20829;DHT22;10575;50.124;8.582;2024-01-30T15:28:40;8.10;99.90
20829;DHT22;10575;50.124;8.582;2024-01-30T15:31:06;8.10;99.90
20829;DHT22;10575;50.124;8.582;2024-01-30T15:33:32;8.20;99.90
20829;DHT22;10575;50.124;8.582;2024-01-30T15:35:59;8.10;99.90